| time (UTC) | temp F | wind direction | speed MPH | gust MPH | rain 1hr in | rain 24hr in | rain mn in | humidity % | barometer mb |
| 20260504034509 | 55 | 290 | 1.0 | 6.0 | 0.00 | 0.06 | 0.06 | 71 | 1004.2 |
| 20260504033010 | 56 | 298 | 3.0 | 6.0 | 0.00 | 0.06 | 0.06 | 69 | 1004.2 |
| 20260504031509 | 56 | 279 | 1.0 | 5.0 | 0.00 | 0.06 | 0.06 | 68 | 1004.2 |
| 20260504030015 | 57 | 285 | 0.0 | 2.0 | 0.00 | 0.06 | 0.06 | 67 | 1004.3 |
| 20260504024511 | 58 | 270 | 1.0 | 5.0 | 0.00 | 0.06 | 0.06 | 65 | 1004.1 |
| 20260504023008 | 59 | 282 | 1.0 | 7.0 | 0.00 | 0.06 | 0.06 | 63 | 1004.1 |
| 20260504021507 | 59 | 286 | 1.0 | 5.0 | 0.00 | 0.06 | 0.06 | 62 | 1004.0 |
| 20260504020008 | 60 | 267 | 1.0 | 6.0 | 0.00 | 0.06 | 0.06 | 61 | 1003.9 |
| 20260504014512 | 61 | 261 | 2.0 | 6.0 | 0.00 | 0.06 | 0.06 | 58 | 1003.8 |
| 20260504013023 | 62 | 278 | 2.0 | 6.0 | 0.00 | 0.06 | 0.06 | 56 | 1003.7 |
| 20260504011505 | 63 | 309 | 3.0 | 11.0 | 0.00 | 0.06 | 0.06 | 55 | 1003.5 |
| 20260504010007 | 64 | 234 | 2.0 | 8.0 | 0.00 | 0.06 | 0.06 | 53 | 1003.6 |
| 20260504004505 | 65 | 275 | 3.0 | 8.0 | 0.00 | 0.06 | 0.06 | 51 | 1003.6 |
| 20260504003007 | 66 | 267 | 3.0 | 10.0 | 0.00 | 0.06 | 0.06 | 49 | 1003.6 |
| 20260504001504 | 68 | 248 | 5.0 | 10.0 | 0.00 | 0.06 | 0.06 | 46 | 1003.6 |
| 20260504000004 | 69 | 274 | 6.0 | 12.0 | 0.00 | 0.06 | 0.06 | 44 | 1003.6 |
| 20260503234503 | 69 | 276 | 7.0 | 13.0 | 0.00 | 0.06 | 0.06 | 44 | 1003.6 |
| 20260503233003 | 70 | 295 | 6.0 | 14.0 | 0.00 | 0.06 | 0.06 | 42 | 1003.6 |
| 20260503231601 | 70 | 279 | 3.0 | 15.0 | 0.00 | 0.06 | 0.06 | 42 | 1003.7 |
| 20260503230115 | 70 | 313 | 5.0 | 12.0 | 0.00 | 0.06 | 0.06 | 42 | 1003.8 |
| 20260503224606 | 70 | 262 | 7.0 | 20.0 | 0.00 | 0.06 | 0.06 | 43 | 1004.0 |
| 20260503223057 | 70 | 270 | 8.0 | 18.0 | 0.00 | 0.06 | 0.06 | 42 | 1004.1 |
| 20260503221604 | 70 | 277 | 9.0 | 18.0 | 0.00 | 0.06 | 0.06 | 42 | 1004.0 |
| 20260503220054 | 70 | 305 | 4.0 | 14.0 | 0.00 | 0.06 | 0.06 | 42 | 1004.2 |
| 20260503214558 | 69 | 260 | 5.0 | 13.0 | 0.00 | 0.06 | 0.06 | 42 | 1004.4 |
| 20260503213052 | 69 | 305 | 4.0 | 17.0 | 0.00 | 0.06 | 0.06 | 42 | 1004.4 |
| 20260503211550 | 69 | 290 | 6.0 | 18.0 | 0.00 | 0.06 | 0.06 | 42 | 1004.5 |
| 20260503210002 | 69 | 270 | 8.0 | 20.0 | 0.00 | 0.06 | 0.06 | 40 | 1004.7 |
| 20260503204607 | 69 | 320 | 11.0 | 19.0 | 0.00 | 0.06 | 0.06 | 41 | 1004.8 |
| 20260503203103 | 68 | 283 | 6.0 | 19.0 | 0.00 | 0.06 | 0.06 | 43 | 1005.2 |
| 20260503201535 | 67 | 275 | 9.0 | 19.0 | 0.00 | 0.06 | 0.06 | 43 | 1005.5 |
| 20260503200023 | 67 | 274 | 8.0 | 22.0 | 0.00 | 0.06 | 0.06 | 45 | 1005.9 |
| 20260503194603 | 66 | 264 | 11.0 | 22.0 | 0.00 | 0.06 | 0.06 | 44 | 1006.3 |
| 20260503193057 | 65 | 260 | 10.0 | 27.0 | 0.00 | 0.06 | 0.06 | 46 | 1006.6 |
| 20260503191541 | 66 | 226 | 12.0 | 23.0 | 0.00 | 0.06 | 0.06 | 46 | 1006.8 |
| 20260503190033 | 65 | 258 | 9.0 | 23.0 | 0.00 | 0.06 | 0.06 | 47 | 1006.6 |
| 20260503184605 | 63 | 262 | 9.0 | 22.0 | 0.00 | 0.06 | 0.06 | 52 | 1007.1 |
| 20260503183021 | 61 | 286 | 8.0 | 18.0 | 0.00 | 0.06 | 0.06 | 57 | 1007.4 |
| 20260503181605 | 59 | 254 | 8.0 | 23.0 | 0.01 | 0.06 | 0.06 | 62 | 1007.3 |
| 20260503180053 | 58 | 268 | 6.0 | 16.0 | 0.01 | 0.06 | 0.06 | 68 | 1007.6 |
| 20260503174506 | 56 | 230 | 7.0 | 15.0 | 0.01 | 0.06 | 0.06 | 68 | 1008.0 |
| 20260503173002 | 56 | 224 | 5.0 | 16.0 | 0.01 | 0.06 | 0.06 | 67 | 1008.4 |
| 20260503171537 | 56 | 288 | 5.0 | 16.0 | 0.00 | 0.05 | 0.05 | 69 | 1008.7 |
| 20260503081536 | 45 | 295 | 3.0 | 7.0 | 0.00 | 0.00 | 0.00 | 62 | 1013.2 |
| 20260503071526 | 45 | 278 | 2.0 | 8.0 | 0.00 | 0.00 | 0.00 | 61 | 1013.5 |
| 20260503054526 | 45 | 280 | 2.0 | 8.0 | 0.00 | 0.00 | 0.00 | 60 | 1014.1 |
| 20260503053019 | 45 | 263 | 2.0 | 7.0 | 0.00 | 0.00 | 0.00 | 60 | 1014.3 |
| 20260503051506 | 45 | 281 | 2.0 | 5.0 | 0.00 | 0.00 | 0.00 | 60 | 1014.4 |
| 20260503050005 | 45 | 273 | 3.0 | 6.0 | 0.00 | 0.00 | 0.00 | 60 | 1014.5 |
| 20260503044503 | 45 | 258 | 1.0 | 6.0 | 0.00 | 0.00 | 0.00 | 59 | 1014.6 |
| 20260503043002 | 46 | 274 | 2.0 | 6.0 | 0.00 | 0.00 | 0.00 | 58 | 1014.6 |
| 20260503041501 | 46 | 282 | 2.0 | 7.0 | 0.00 | 0.00 | 0.00 | 58 | 1014.7 |
| 20260503040106 | 46 | 279 | 2.0 | 6.0 | 0.00 | 0.00 | 0.00 | 58 | 1014.9 |